createdAt,value
2018-06-27T00:01:34.137Z,18.13
2018-06-27T00:04:02.222Z,18.00
2018-06-27T00:06:30.231Z,17.71
2018-06-27T00:08:58.166Z,17.44
2018-06-27T00:11:27.125Z,17.31
2018-06-27T00:13:55.098Z,17.16
2018-06-27T00:16:23.165Z,17.05
2018-06-27T00:18:51.279Z,16.99
2018-06-27T00:21:19.262Z,16.93
2018-06-27T00:23:47.339Z,16.93
2018-06-27T00:26:15.330Z,16.86
2018-06-27T00:28:43.384Z,16.90
2018-06-27T00:31:11.755Z,17.03
2018-06-27T00:33:39.702Z,17.00
2018-06-27T00:36:07.757Z,16.92
2018-06-27T00:38:35.755Z,16.95
2018-06-27T00:41:03.937Z,17.01
2018-06-27T00:43:31.886Z,16.91
2018-06-27T00:46:00.230Z,16.65
2018-06-27T00:48:28.286Z,16.62
2018-06-27T00:50:56.336Z,16.55
2018-06-27T00:53:29.663Z,16.55
2018-06-27T00:55:57.689Z,16.59
2018-06-27T00:58:25.725Z,16.63
2018-06-27T01:00:53.915Z,16.61
2018-06-27T01:03:21.901Z,16.68
2018-06-27T01:05:49.906Z,16.65
2018-06-27T01:08:17.941Z,16.72
2018-06-27T01:10:46.050Z,16.75
2018-06-27T01:13:14.076Z,16.71
2018-06-27T01:15:42.016Z,16.77
2018-06-27T01:18:10.468Z,16.68
2018-06-27T01:20:38.527Z,16.67
2018-06-27T01:23:07.093Z,16.69
2018-06-27T01:25:35.059Z,16.63
2018-06-27T01:28:03.002Z,16.68
2018-06-27T01:30:31.303Z,16.50
2018-06-27T01:32:59.373Z,16.52
2018-06-27T01:35:27.445Z,16.63
2018-06-27T01:37:55.820Z,16.62
2018-06-27T01:40:25.489Z,16.66
2018-06-27T01:42:54.009Z,16.67
2018-06-27T01:45:22.499Z,16.64
2018-06-27T01:47:56.308Z,16.63
2018-06-27T01:50:24.990Z,16.67
2018-06-27T01:52:53.633Z,16.70
2018-06-27T01:55:23.508Z,16.81
2018-06-27T01:57:52.043Z,16.77
2018-06-27T02:00:22.155Z,16.87
2018-06-27T02:02:50.665Z,16.89
2018-06-27T02:05:19.154Z,16.89
2018-06-27T02:07:48.865Z,16.89
2018-06-27T02:10:20.057Z,16.96
2018-06-27T02:12:49.616Z,16.97
2018-06-27T02:15:17.872Z,17.05
2018-06-27T02:17:46.796Z,17.11
2018-06-27T02:20:15.438Z,17.21
2018-06-27T02:22:43.922Z,17.23
2018-06-27T02:25:12.033Z,17.18
2018-06-27T02:27:40.065Z,17.13
2018-06-27T02:30:08.159Z,17.21
2018-06-27T02:32:36.668Z,17.21
2018-06-27T02:35:05.030Z,17.13
2018-06-27T02:37:33.124Z,16.91
2018-06-27T02:40:01.360Z,16.84
2018-06-27T02:42:29.815Z,16.78
2018-06-27T02:44:58.102Z,16.69
2018-06-27T02:47:26.174Z,16.66
2018-06-27T02:49:54.543Z,16.67
2018-06-27T02:52:22.526Z,16.69
2018-06-27T02:54:50.530Z,16.67
2018-06-27T02:57:18.540Z,16.72
2018-06-27T02:59:46.765Z,16.68
2018-06-27T03:02:14.744Z,16.62
2018-06-27T03:04:42.782Z,16.59
2018-06-27T03:07:11.241Z,16.57
2018-06-27T03:09:39.664Z,16.56
2018-06-27T03:12:07.680Z,16.51
2018-06-27T03:14:35.721Z,16.53
2018-06-27T03:17:03.756Z,16.51
2018-06-27T03:19:31.807Z,16.55
2018-06-27T03:21:59.799Z,16.66
2018-06-27T03:24:28.116Z,16.85
2018-06-27T03:26:56.134Z,16.79
2018-06-27T03:29:24.194Z,16.85
2018-06-27T03:31:52.264Z,16.72
2018-06-27T03:34:20.275Z,16.73
2018-06-27T03:36:48.448Z,16.70
2018-06-27T03:39:16.480Z,16.72
2018-06-27T03:41:44.456Z,16.74
2018-06-27T03:44:12.903Z,16.83
2018-06-27T03:46:40.823Z,16.82
2018-06-27T03:49:08.861Z,16.91
2018-06-27T03:51:36.844Z,16.98
2018-06-27T03:54:05.289Z,17.12
2018-06-27T03:56:33.284Z,17.23
2018-06-27T03:59:01.297Z,17.38
2018-06-27T04:01:29.738Z,17.42
2018-06-27T04:03:58.633Z,17.32
2018-06-27T04:06:26.584Z,17.31
2018-06-27T04:08:54.588Z,17.43
2018-06-27T04:11:22.649Z,17.65
2018-06-27T04:13:50.620Z,17.91
2018-06-27T04:16:18.598Z,17.90
2018-06-27T04:18:46.597Z,18.04
2018-06-27T04:21:14.667Z,18.13
2018-06-27T04:23:42.703Z,18.04
2018-06-27T04:26:10.705Z,18.08
2018-06-27T04:28:39.466Z,18.15
2018-06-27T04:31:07.548Z,18.18
2018-06-27T04:33:35.548Z,18.21
2018-06-27T04:36:03.941Z,18.19
2018-06-27T04:38:32.054Z,18.43
2018-06-27T04:41:00.092Z,18.66
2018-06-27T04:43:28.019Z,18.63
2018-06-27T04:45:56.076Z,18.73
2018-06-27T04:48:24.125Z,19.03
2018-06-27T04:50:52.144Z,19.10
2018-06-27T04:53:20.204Z,19.13
2018-06-27T04:55:48.222Z,19.47
2018-06-27T04:58:16.226Z,19.44
2018-06-27T05:00:52.529Z,19.47
2018-06-27T05:03:21.841Z,19.43
2018-06-27T05:05:49.863Z,19.48
2018-06-27T05:08:18.484Z,19.44
2018-06-27T05:10:46.518Z,19.47
2018-06-27T05:13:14.567Z,19.46
2018-06-27T05:15:42.523Z,19.45
2018-06-27T05:18:10.580Z,19.33
2018-06-27T05:20:38.646Z,19.17
2018-06-27T05:23:06.754Z,19.09
2018-06-27T05:25:34.965Z,19.24
2018-06-27T05:28:02.995Z,19.37
2018-06-27T05:30:31.107Z,19.44
2018-06-27T05:32:59.001Z,19.49
2018-06-27T05:35:27.026Z,19.32
2018-06-27T05:37:55.156Z,19.23
2018-06-27T05:40:23.219Z,19.35
2018-06-27T05:42:51.492Z,19.48
2018-06-27T05:45:19.632Z,19.41
2018-06-27T05:47:47.606Z,19.39
2018-06-27T05:50:15.555Z,19.32
2018-06-27T05:52:43.598Z,19.19
2018-06-27T05:55:11.760Z,19.21
2018-06-27T05:57:40.755Z,19.26
2018-06-27T06:00:09.908Z,19.21
2018-06-27T06:02:37.833Z,19.19
2018-06-27T06:05:08.213Z,19.20
2018-06-27T06:07:36.802Z,19.17
2018-06-27T06:10:07.647Z,19.18
2018-06-27T06:12:35.687Z,19.20
2018-06-27T06:15:04.967Z,19.23
2018-06-27T06:17:33.150Z,19.04
2018-06-27T06:20:01.226Z,18.92
2018-06-27T06:22:29.670Z,18.94
2018-06-27T06:24:57.749Z,18.58
2018-06-27T06:27:25.804Z,18.57
2018-06-27T06:29:53.754Z,18.33
2018-06-27T06:32:21.709Z,18.12
2018-06-27T06:34:49.735Z,17.78
2018-06-27T06:37:17.727Z,17.61
2018-06-27T06:39:46.181Z,17.46
2018-06-27T06:42:14.349Z,17.47
2018-06-27T06:44:42.971Z,17.53
2018-06-27T06:47:10.996Z,17.63
2018-06-27T06:49:39.493Z,17.62
2018-06-27T06:52:07.572Z,17.59
2018-06-27T06:54:35.514Z,17.69
2018-06-27T06:57:03.599Z,17.89
2018-06-27T06:59:31.551Z,18.14
2018-06-27T07:01:59.524Z,18.33
2018-06-27T07:04:27.493Z,18.53
2018-06-27T07:06:55.623Z,18.61
2018-06-27T07:09:23.792Z,18.71
2018-06-27T07:11:51.765Z,19.00
2018-06-27T07:14:19.869Z,19.46
2018-06-27T07:16:47.995Z,19.59
2018-06-27T07:19:15.995Z,19.73
2018-06-27T07:21:44.460Z,19.66
2018-06-27T07:24:12.820Z,19.61
2018-06-27T07:26:41.853Z,19.66
2018-06-27T07:29:09.965Z,19.71
2018-06-27T07:31:38.154Z,19.69
2018-06-27T07:34:06.195Z,19.66
2018-06-27T07:36:34.522Z,19.66
2018-06-27T07:39:03.050Z,19.55
2018-06-27T07:41:32.446Z,19.49
2018-06-27T07:44:00.445Z,19.47
2018-06-27T07:46:29.947Z,19.49
2018-06-27T07:48:58.061Z,19.59
2018-06-27T07:51:26.111Z,19.64
2018-06-27T07:53:54.361Z,19.78
2018-06-27T07:56:22.479Z,19.93
2018-06-27T07:58:50.692Z,20.07
2018-06-27T08:01:18.752Z,20.17
2018-06-27T08:03:46.970Z,20.18
2018-06-27T08:06:14.987Z,20.22
2018-06-27T08:08:43.675Z,20.29
2018-06-27T08:11:11.861Z,20.67
2018-06-27T08:13:39.904Z,21.06
2018-06-27T08:16:07.951Z,21.05
2018-06-27T08:18:43.506Z,21.03
2018-06-27T08:21:11.638Z,21.05
2018-06-27T08:23:39.868Z,20.92
2018-06-27T08:28:59.636Z,21.17
2018-06-27T08:31:27.762Z,21.48
2018-06-27T08:33:55.832Z,21.33
2018-06-27T08:36:23.873Z,21.07
2018-06-27T08:38:51.876Z,20.98
2018-06-27T08:41:20.150Z,21.30
2018-06-27T08:43:48.322Z,21.44
2018-06-27T08:46:16.438Z,21.36
2018-06-27T08:48:44.477Z,21.36
2018-06-27T08:51:12.567Z,21.35
2018-06-27T08:53:40.722Z,21.57
2018-06-27T08:56:10.762Z,21.87
2018-06-27T08:58:38.763Z,21.97
2018-06-27T09:01:06.847Z,22.17
2018-06-27T09:03:34.776Z,22.18
2018-06-27T09:06:02.787Z,22.03
2018-06-27T09:08:30.867Z,21.92
2018-06-27T09:10:59.052Z,21.79
2018-06-27T09:13:27.034Z,21.99
2018-06-27T09:15:55.091Z,22.15
2018-06-27T09:18:23.074Z,22.36
2018-06-27T09:20:51.199Z,22.34
2018-06-27T09:23:19.252Z,22.46
2018-06-27T09:25:47.594Z,22.42
2018-06-27T09:28:15.652Z,22.55
2018-06-27T09:30:43.638Z,22.60
2018-06-27T09:33:11.616Z,22.52
2018-06-27T09:35:39.818Z,22.40
2018-06-27T09:38:08.257Z,22.41
2018-06-27T09:40:36.220Z,22.55
2018-06-27T09:43:04.260Z,22.81
2018-06-27T09:45:32.249Z,22.88
2018-06-27T09:48:00.417Z,22.82
2018-06-27T09:50:28.783Z,22.79
2018-06-27T09:52:56.942Z,22.64
2018-06-27T09:55:24.962Z,22.71
2018-06-27T09:57:53.139Z,22.87
2018-06-27T10:00:26.761Z,23.19
2018-06-27T10:02:54.879Z,23.37
2018-06-27T10:05:22.810Z,23.51
2018-06-27T10:07:51.657Z,23.23
2018-06-27T10:10:19.830Z,23.06
2018-06-27T10:12:47.827Z,23.11
2018-06-27T10:15:16.109Z,23.31
2018-06-27T10:17:44.080Z,23.52
2018-06-27T10:20:12.375Z,23.33
2018-06-27T10:22:40.557Z,23.30
2018-06-27T10:25:08.708Z,23.69
2018-06-27T10:27:36.860Z,23.65
2018-06-27T10:30:05.528Z,23.87
2018-06-27T10:32:33.513Z,23.89
2018-06-27T10:35:01.533Z,24.10
2018-06-27T10:37:29.496Z,24.47
2018-06-27T10:39:57.440Z,24.72
2018-06-27T10:42:25.645Z,24.58
2018-06-27T10:44:53.752Z,24.76
2018-06-27T10:47:21.860Z,24.53
2018-06-27T10:49:50.058Z,24.71
2018-06-27T10:52:18.225Z,24.93
2018-06-27T10:54:54.164Z,24.59
2018-06-27T10:57:23.339Z,24.79
2018-06-27T10:59:52.559Z,24.55
2018-06-27T11:02:21.257Z,23.98
2018-06-27T11:04:49.219Z,24.08
2018-06-27T11:07:17.190Z,24.29
2018-06-27T11:09:45.253Z,24.51
2018-06-27T11:12:13.207Z,24.58
2018-06-27T11:14:41.257Z,24.52
2018-06-27T11:17:09.352Z,24.30
2018-06-27T11:19:37.543Z,24.31
2018-06-27T11:22:05.621Z,24.66
2018-06-27T11:24:33.683Z,25.09
2018-06-27T11:27:01.752Z,25.22
2018-06-27T11:29:29.902Z,25.37
2018-06-27T11:31:58.335Z,25.28
2018-06-27T11:34:26.412Z,25.32
2018-06-27T11:36:54.368Z,24.93
2018-06-27T11:39:23.008Z,24.55
2018-06-27T11:41:51.831Z,24.11
2018-06-27T11:44:19.961Z,24.19
2018-06-27T11:46:48.818Z,24.24
2018-06-27T11:49:16.817Z,24.49
2018-06-27T11:51:45.403Z,24.96
2018-06-27T11:54:13.974Z,25.19
2018-06-27T11:56:42.069Z,25.38
2018-06-27T11:59:10.026Z,24.94
2018-06-27T12:01:38.007Z,24.97
2018-06-27T12:04:06.034Z,25.06
2018-06-27T12:06:34.211Z,25.26
2018-06-27T12:09:02.605Z,25.20
2018-06-27T12:11:30.612Z,25.10
2018-06-27T12:13:58.641Z,24.88
2018-06-27T12:16:27.216Z,25.07
2018-06-27T12:18:55.293Z,25.32
2018-06-27T12:21:23.567Z,25.35
2018-06-27T12:23:51.566Z,25.01
2018-06-27T12:26:19.778Z,24.95
2018-06-27T12:28:47.698Z,25.05
2018-06-27T12:31:15.974Z,25.34
2018-06-27T12:33:43.943Z,25.65
2018-06-27T12:36:13.332Z,26.52
2018-06-27T12:38:41.368Z,26.06
2018-06-27T12:41:09.416Z,25.24
2018-06-27T12:43:37.424Z,24.77
2018-06-27T12:46:05.508Z,24.78
2018-06-27T12:48:33.561Z,24.88
2018-06-27T12:51:01.583Z,25.01
2018-06-27T12:53:29.498Z,24.99
2018-06-27T12:55:57.853Z,25.25
2018-06-27T12:58:26.012Z,25.36
2018-06-27T13:00:54.096Z,25.45
2018-06-27T13:03:22.143Z,25.67
2018-06-27T13:05:50.245Z,25.55
2018-06-27T13:08:18.324Z,25.64
2018-06-27T13:10:46.766Z,25.59
2018-06-27T13:13:14.833Z,25.35
2018-06-27T13:15:42.944Z,26.22
2018-06-27T13:18:10.886Z,26.67
2018-06-27T13:20:38.921Z,26.90
2018-06-27T13:23:07.055Z,26.42
2018-06-27T13:25:35.154Z,25.90
2018-06-27T13:28:03.152Z,25.66
2018-06-27T13:30:31.074Z,25.53
2018-06-27T13:32:59.076Z,25.32
2018-06-27T13:35:27.212Z,25.23
2018-06-27T13:37:55.434Z,25.02
2018-06-27T13:40:23.426Z,25.04
2018-06-27T13:42:51.504Z,24.79
2018-06-27T13:45:19.537Z,24.75
2018-06-27T13:47:47.503Z,24.47
2018-06-27T13:50:15.521Z,24.41
2018-06-27T13:52:43.784Z,24.37
2018-06-27T13:55:11.928Z,24.41
2018-06-27T13:57:39.848Z,24.37
2018-06-27T14:00:08.175Z,24.42
2018-06-27T14:02:36.273Z,24.43
2018-06-27T14:05:04.899Z,24.38
2018-06-27T14:07:33.558Z,24.36
2018-06-27T14:10:02.060Z,24.26
2018-06-27T14:12:30.121Z,24.32
2018-06-27T14:14:59.278Z,24.26
2018-06-27T14:17:27.777Z,24.06
2018-06-27T14:19:56.080Z,23.48
2018-06-27T14:22:24.264Z,22.89
2018-06-27T14:24:52.940Z,22.22
2018-06-27T14:27:21.524Z,21.85
2018-06-27T14:29:49.637Z,21.74
2018-06-27T14:32:17.632Z,21.67
2018-06-27T14:34:45.762Z,21.63
2018-06-27T14:37:13.772Z,21.52
2018-06-27T14:39:41.801Z,22.02
2018-06-27T14:42:09.866Z,21.92
2018-06-27T14:44:37.870Z,21.55
2018-06-27T14:47:06.046Z,21.30
2018-06-27T14:49:34.528Z,21.10
2018-06-27T14:52:02.656Z,20.96
2018-06-27T14:54:30.617Z,20.91
2018-06-27T14:56:58.628Z,20.80
2018-06-27T14:59:26.698Z,20.76
2018-06-27T15:01:54.641Z,20.78
2018-06-27T15:04:22.721Z,20.78
2018-06-27T15:06:51.038Z,20.51
2018-06-27T15:09:19.022Z,20.11
2018-06-27T15:11:47.116Z,19.77
2018-06-27T15:14:15.136Z,19.04
2018-06-27T15:16:43.131Z,18.62
2018-06-27T15:19:11.147Z,18.17
2018-06-27T15:21:39.233Z,17.82
2018-06-27T15:24:07.322Z,17.63
2018-06-27T15:26:35.382Z,17.17
2018-06-27T15:29:03.379Z,16.97
2018-06-27T15:31:31.452Z,16.69
2018-06-27T15:33:59.486Z,16.70
2018-06-27T15:36:27.701Z,16.76
2018-06-27T15:38:55.704Z,16.78
2018-06-27T15:41:24.424Z,16.81
2018-06-27T15:43:52.766Z,16.83
2018-06-27T15:46:20.826Z,16.97
2018-06-27T15:48:48.928Z,16.96
2018-06-27T15:51:17.007Z,16.97
2018-06-27T15:53:45.110Z,17.16
2018-06-27T15:56:13.125Z,17.34
2018-06-27T15:58:41.480Z,17.45
2018-06-27T16:01:09.939Z,17.60
2018-06-27T16:03:38.042Z,17.62
2018-06-27T16:06:07.065Z,17.63
2018-06-27T16:08:35.012Z,17.60
2018-06-27T16:11:03.010Z,17.55
2018-06-27T16:13:31.045Z,17.58
2018-06-27T16:15:59.308Z,17.49
2018-06-27T16:18:27.560Z,17.47
2018-06-27T16:20:55.795Z,17.48
2018-06-27T16:23:23.704Z,17.56
2018-06-27T16:25:51.721Z,17.54
2018-06-27T16:28:19.727Z,17.47
2018-06-27T16:30:47.894Z,17.45
2018-06-27T16:33:15.989Z,17.40
2018-06-27T16:35:44.008Z,17.41
2018-06-27T16:38:12.219Z,17.45
2018-06-27T16:40:40.871Z,17.56
2018-06-27T16:43:08.941Z,17.66
2018-06-27T16:45:36.975Z,17.76
2018-06-27T16:48:05.970Z,17.77
2018-06-27T16:50:34.015Z,17.67
2018-06-27T16:53:01.917Z,17.69
2018-06-27T16:55:29.942Z,17.70
2018-06-27T16:57:57.899Z,17.72
2018-06-27T17:00:25.951Z,17.70
2018-06-27T17:02:54.048Z,17.74
2018-06-27T17:05:22.046Z,17.70
2018-06-27T17:07:50.884Z,17.73
2018-06-27T17:10:18.836Z,17.69
2018-06-27T17:12:47.274Z,17.75
2018-06-27T17:15:16.666Z,17.78
2018-06-27T17:17:44.828Z,17.78
2018-06-27T17:20:12.976Z,17.85
2018-06-27T17:22:40.922Z,17.84
2018-06-27T17:25:08.925Z,17.92
2018-06-27T17:27:36.990Z,17.91
2018-06-27T17:30:05.278Z,17.88
2018-06-27T17:32:33.745Z,17.93
2018-06-27T17:35:01.823Z,17.83
2018-06-27T17:37:29.732Z,17.89
2018-06-27T17:39:57.683Z,17.95
2018-06-27T17:42:25.767Z,18.00
2018-06-27T17:44:53.826Z,18.03
2018-06-27T17:47:21.775Z,18.07
2018-06-27T17:49:49.848Z,18.11
2018-06-27T17:52:17.778Z,18.13
2018-06-27T17:54:45.675Z,18.07
2018-06-27T17:57:13.748Z,18.07
2018-06-27T17:59:42.044Z,17.96
2018-06-27T18:02:10.095Z,17.97
2018-06-27T18:04:38.430Z,18.02
2018-06-27T18:07:06.461Z,17.97
2018-06-27T18:09:34.729Z,17.98
2018-06-27T18:12:02.747Z,18.00
2018-06-27T18:14:30.771Z,18.06
2018-06-27T18:16:58.861Z,18.09
2018-06-27T18:19:26.890Z,18.09
2018-06-27T18:21:54.935Z,17.98
2018-06-27T18:24:23.002Z,18.04
2018-06-27T18:26:51.010Z,18.11
2018-06-27T18:29:19.319Z,18.03
2018-06-27T18:31:47.392Z,17.97
2018-06-27T18:34:15.388Z,17.95
2018-06-27T18:36:45.554Z,17.97
2018-06-27T18:39:13.527Z,17.94
2018-06-27T18:41:44.243Z,17.84
2018-06-27T18:44:12.554Z,17.83
2018-06-27T18:46:40.568Z,17.83
2018-06-27T18:49:08.592Z,17.88
2018-06-27T18:51:36.672Z,17.94
2018-06-27T18:54:05.648Z,17.93
2018-06-27T18:56:33.708Z,17.89
2018-06-27T18:59:01.741Z,17.85
2018-06-27T19:01:29.862Z,17.87
2018-06-27T19:03:57.935Z,17.95
2018-06-27T19:06:25.993Z,18.03
2018-06-27T19:08:54.040Z,18.02
2018-06-27T19:11:22.104Z,17.92
2018-06-27T19:13:50.317Z,17.94
2018-06-27T19:16:18.306Z,18.01
2018-06-27T19:18:46.373Z,18.02
2018-06-27T19:21:14.397Z,18.02
2018-06-27T19:23:43.056Z,18.08
2018-06-27T19:26:11.106Z,17.92
2018-06-27T19:28:39.302Z,17.73
2018-06-27T19:31:07.219Z,17.66
2018-06-27T19:33:35.212Z,17.55
2018-06-27T19:36:03.659Z,17.53
2018-06-27T19:38:31.986Z,17.46
2018-06-27T19:41:00.107Z,17.47
2018-06-27T19:43:28.482Z,17.46
2018-06-27T19:45:56.412Z,17.45
2018-06-27T19:48:24.416Z,17.44
2018-06-27T19:50:52.476Z,17.46
2018-06-27T19:53:20.619Z,17.46
2018-06-27T19:55:48.666Z,17.51
2018-06-27T19:58:16.803Z,17.54
2018-06-27T20:00:45.865Z,17.62
2018-06-27T20:03:13.880Z,17.73
2018-06-27T20:05:43.475Z,17.73
2018-06-27T20:08:11.327Z,17.71
2018-06-27T20:10:39.503Z,17.74
2018-06-27T20:13:07.476Z,17.80
2018-06-27T20:15:35.552Z,17.74
2018-06-27T20:18:03.644Z,17.76
2018-06-27T20:20:31.739Z,17.58
2018-06-27T20:22:59.647Z,17.55
2018-06-27T20:25:27.699Z,17.51
2018-06-27T20:27:56.061Z,17.62
2018-06-27T20:30:23.901Z,17.65
2018-06-27T20:32:51.852Z,17.70
2018-06-27T20:35:19.778Z,17.68
2018-06-27T20:37:47.760Z,17.62
2018-06-27T20:40:15.744Z,17.58
2018-06-27T20:42:43.810Z,17.63
2018-06-27T20:45:11.795Z,17.65
2018-06-27T20:47:39.941Z,17.67
2018-06-27T20:50:07.877Z,17.61
2018-06-27T20:52:36.025Z,17.65
2018-06-27T20:55:03.905Z,17.58
2018-06-27T20:57:31.864Z,17.60
2018-06-27T20:59:59.786Z,17.50
2018-06-27T21:02:27.785Z,17.54
2018-06-27T21:04:55.735Z,17.58
2018-06-27T21:07:23.753Z,17.69
2018-06-27T21:09:51.702Z,17.80
2018-06-27T21:12:19.637Z,17.85
2018-06-27T21:14:47.622Z,17.72
2018-06-27T21:17:15.536Z,17.64
2018-06-27T21:19:43.528Z,17.64
2018-06-27T21:22:11.550Z,17.59
2018-06-27T21:24:39.454Z,17.57
2018-06-27T21:27:07.508Z,17.57
2018-06-27T21:29:35.445Z,17.62
2018-06-27T21:32:03.438Z,17.69
2018-06-27T21:34:31.511Z,17.77
2018-06-27T21:36:59.423Z,17.85
2018-06-27T21:39:27.391Z,17.83
2018-06-27T21:41:55.331Z,17.81
2018-06-27T21:44:23.289Z,17.77
2018-06-27T21:46:51.270Z,17.75
2018-06-27T21:49:19.267Z,17.72
2018-06-27T21:51:47.263Z,17.73
2018-06-27T21:54:15.222Z,17.79
2018-06-27T21:56:43.153Z,17.82
2018-06-27T21:59:11.031Z,17.66
2018-06-27T22:01:39.688Z,17.65
2018-06-27T22:04:07.844Z,17.54
2018-06-27T22:06:35.886Z,17.49
2018-06-27T22:09:06.045Z,17.49
2018-06-27T22:11:34.152Z,17.50
2018-06-27T22:14:02.121Z,17.52
2018-06-27T22:16:30.215Z,17.54
2018-06-27T22:18:58.294Z,17.59
2018-06-27T22:21:26.382Z,17.51
2018-06-27T22:23:54.735Z,17.48
2018-06-27T22:26:22.796Z,17.45
2018-06-27T22:28:50.945Z,17.47
2018-06-27T22:31:18.985Z,17.43
2018-06-27T22:33:47.127Z,17.40
2018-06-27T22:36:15.130Z,17.31
2018-06-27T22:38:43.245Z,17.28
2018-06-27T22:41:11.331Z,17.25
2018-06-27T22:43:39.456Z,17.27
2018-06-27T22:46:07.731Z,17.24
2018-06-27T22:48:35.766Z,17.18
2018-06-27T22:51:04.571Z,17.26
2018-06-27T22:53:32.666Z,17.20
2018-06-27T22:56:00.700Z,17.32
2018-06-27T22:58:28.671Z,17.40
2018-06-27T23:00:56.746Z,17.43
2018-06-27T23:03:24.728Z,17.44
2018-06-27T23:05:52.775Z,17.49
2018-06-27T23:08:20.781Z,17.64
2018-06-27T23:10:48.726Z,17.73
2018-06-27T23:13:16.701Z,17.79
2018-06-27T23:15:44.682Z,17.79
2018-06-27T23:18:12.695Z,17.88
2018-06-27T23:20:40.943Z,17.87
2018-06-27T23:23:08.986Z,17.75
2018-06-27T23:25:36.998Z,17.78
2018-06-27T23:28:05.013Z,17.83
2018-06-27T23:30:33.093Z,17.95
2018-06-27T23:33:01.185Z,18.03
2018-06-27T23:35:29.223Z,18.06
2018-06-27T23:37:57.235Z,18.11
2018-06-27T23:40:25.191Z,18.15
2018-06-27T23:42:53.435Z,18.16
2018-06-27T23:45:21.536Z,18.18
2018-06-27T23:47:49.659Z,18.15
2018-06-27T23:50:17.815Z,18.20
2018-06-27T23:52:45.780Z,18.12
2018-06-27T23:55:13.866Z,18.08
2018-06-27T23:57:41.930Z,18.02
